createdAt,value
2019-02-03T00:01:26.962Z,40.20
2019-02-03T00:03:54.910Z,37.00
2019-02-03T00:06:24.153Z,39.18
2019-02-03T00:08:52.078Z,37.25
2019-02-03T00:11:19.766Z,38.10
2019-02-03T00:13:47.641Z,40.15
2019-02-03T00:16:15.389Z,36.17
2019-02-03T00:18:45.048Z,38.35
2019-02-03T00:21:12.881Z,35.63
2019-02-03T00:23:40.550Z,36.60
2019-02-03T00:26:08.326Z,38.65
2019-02-03T00:28:36.131Z,36.50
2019-02-03T00:31:04.558Z,38.08
2019-02-03T00:33:32.453Z,36.70
2019-02-03T00:36:00.809Z,37.88
2019-02-03T00:38:28.622Z,40.45
2019-02-03T00:40:56.608Z,36.08
2019-02-03T00:43:24.449Z,38.13
2019-02-03T00:45:52.319Z,37.03
2019-02-03T00:48:20.101Z,37.85
2019-02-03T00:50:47.993Z,36.85
2019-02-03T00:53:15.659Z,37.00
2019-02-03T00:55:43.426Z,36.25
2019-02-03T00:58:11.102Z,38.63
2019-02-03T01:00:39.162Z,37.95
2019-02-03T01:03:06.943Z,38.75
2019-02-03T01:05:35.344Z,40.40
2019-02-03T01:08:04.956Z,36.55
2019-02-03T01:10:33.005Z,37.25
2019-02-03T01:13:00.784Z,36.38
2019-02-03T01:15:28.743Z,34.73
2019-02-03T01:17:56.597Z,33.55
2019-02-03T01:20:24.299Z,36.08
2019-02-03T01:22:52.341Z,37.90
2019-02-03T01:25:20.643Z,35.25
2019-02-03T01:27:48.498Z,34.92
2019-02-03T01:30:17.681Z,34.95
2019-02-03T01:32:47.025Z,33.08
2019-02-03T01:35:15.221Z,36.03
2019-02-03T01:37:43.074Z,36.17
2019-02-03T01:40:13.449Z,33.00
2019-02-03T01:42:42.798Z,33.75
2019-02-03T01:45:13.076Z,35.98
2019-02-03T01:47:42.437Z,37.85
2019-02-03T01:50:11.955Z,34.58
2019-02-03T01:52:40.929Z,34.80
2019-02-03T01:55:11.271Z,32.38
2019-02-03T01:57:40.550Z,33.98
2019-02-03T02:00:12.962Z,34.55
2019-02-03T02:02:42.379Z,31.50
2019-02-03T02:05:10.718Z,34.15
2019-02-03T02:07:50.871Z,29.27
2019-02-03T02:10:11.061Z,26.00
2019-02-03T02:12:40.348Z,28.67
2019-02-03T02:15:10.670Z,25.90
2019-02-03T02:17:39.935Z,27.90
2019-02-03T02:20:11.654Z,26.33
2019-02-03T02:22:40.930Z,26.62
2019-02-03T02:25:08.770Z,25.88
2019-02-03T02:27:36.654Z,28.23
2019-02-03T02:30:06.863Z,26.10
2019-02-03T02:32:36.742Z,28.07
2019-02-03T02:35:06.345Z,25.35
2019-02-03T02:37:35.637Z,28.62
2019-02-03T02:40:12.761Z,26.02
2019-02-03T02:42:36.168Z,25.70
2019-02-03T02:45:04.705Z,26.55
2019-02-03T02:47:34.364Z,26.05
2019-02-03T02:50:02.340Z,24.90
2019-02-03T02:52:31.605Z,24.30
2019-02-03T02:54:59.358Z,23.67
2019-02-03T02:57:27.021Z,25.60
2019-02-03T02:59:54.758Z,26.05
2019-02-03T03:02:22.935Z,28.12
2019-02-03T03:04:50.841Z,26.80
2019-02-03T03:07:18.773Z,26.93
2019-02-03T03:09:46.570Z,27.10
2019-02-03T03:12:14.315Z,27.05
2019-02-03T03:14:41.965Z,26.30
2019-02-03T03:17:10.229Z,25.55
2019-02-03T03:19:38.126Z,25.35
2019-02-03T03:22:06.058Z,26.02
2019-02-03T03:24:34.026Z,24.85
2019-02-03T03:27:01.897Z,26.52
2019-02-03T03:29:29.645Z,25.80
2019-02-03T03:31:57.994Z,25.70
2019-02-03T03:34:25.805Z,26.23
2019-02-03T03:36:53.773Z,25.10
2019-02-03T03:39:21.647Z,24.92
2019-02-03T03:41:49.598Z,26.00
2019-02-03T03:44:17.473Z,26.07
2019-02-03T03:46:45.445Z,24.95
2019-02-03T03:49:13.325Z,24.10
2019-02-03T03:51:42.666Z,25.60
2019-02-03T03:54:10.325Z,24.60
2019-02-03T03:56:38.021Z,26.20
2019-02-03T03:59:05.778Z,25.65
2019-02-03T04:01:33.482Z,26.27
2019-02-03T04:04:01.414Z,25.35
2019-02-03T04:06:29.487Z,25.05
2019-02-03T04:08:57.452Z,27.10
2019-02-03T04:11:25.101Z,24.67
2019-02-03T04:13:53.024Z,24.15
2019-02-03T04:16:21.889Z,24.12
2019-02-03T04:18:49.823Z,25.52
2019-02-03T04:21:17.494Z,24.85
2019-02-03T04:23:45.252Z,25.02
2019-02-03T04:26:12.922Z,23.47
2019-02-03T04:28:40.652Z,23.32
2019-02-03T04:31:08.329Z,23.40
2019-02-03T04:33:36.065Z,24.55
2019-02-03T04:36:04.029Z,23.83
2019-02-03T04:38:31.860Z,25.02
2019-02-03T04:40:59.546Z,25.05
2019-02-03T04:43:27.482Z,25.35
2019-02-03T04:45:55.263Z,25.52
2019-02-03T04:48:23.207Z,25.12
2019-02-03T04:50:50.896Z,25.17
2019-02-03T04:53:18.634Z,27.85
2019-02-03T04:55:46.378Z,24.75
2019-02-03T04:58:14.217Z,24.27
2019-02-03T05:00:42.181Z,24.77
2019-02-03T05:03:09.941Z,24.32
2019-02-03T05:05:38.081Z,24.72
2019-02-03T05:08:06.036Z,24.72
2019-02-03T05:10:33.938Z,24.85
2019-02-03T05:13:01.722Z,21.42
2019-02-03T05:15:29.693Z,23.65
2019-02-03T05:17:57.437Z,23.70
2019-02-03T05:20:26.612Z,24.32
2019-02-03T05:22:54.507Z,24.95
2019-02-03T05:25:22.639Z,21.97
2019-02-03T05:27:50.493Z,26.23
2019-02-03T05:30:23.688Z,25.52
2019-02-03T05:32:53.136Z,25.95
2019-02-03T05:35:21.445Z,25.68
2019-02-03T05:37:50.825Z,27.77
2019-02-03T05:40:18.688Z,26.35
2019-02-03T05:42:46.835Z,27.17
2019-02-03T05:45:16.254Z,24.90
2019-02-03T05:47:45.676Z,26.93
2019-02-03T05:50:15.282Z,26.60
2019-02-03T05:52:44.752Z,29.57
2019-02-03T05:55:13.154Z,28.70
2019-02-03T05:57:41.898Z,27.25
2019-02-03T06:00:12.977Z,26.75
2019-02-03T06:02:42.703Z,28.32
2019-02-03T06:05:10.481Z,26.85
2019-02-03T06:07:38.341Z,22.32
2019-02-03T06:10:09.368Z,28.20
2019-02-03T06:12:38.718Z,25.88
2019-02-03T06:15:25.863Z,30.08
2019-02-03T06:17:53.703Z,28.45
2019-02-03T06:20:21.475Z,28.65
2019-02-03T06:22:49.110Z,27.82
2019-02-03T06:25:16.946Z,26.95
2019-02-03T06:27:44.734Z,28.32
2019-02-03T06:30:56.728Z,29.35
2019-02-03T06:33:26.082Z,26.50
2019-02-03T06:35:53.817Z,27.65
2019-02-03T06:38:21.623Z,27.67
2019-02-03T06:40:49.318Z,29.52
2019-02-03T06:43:17.178Z,29.70
2019-02-03T06:46:04.474Z,28.27
2019-02-03T06:48:42.618Z,28.90
2019-02-03T06:51:10.502Z,29.25
2019-02-03T06:53:40.163Z,34.23
2019-02-03T06:56:07.842Z,30.20
2019-02-03T06:58:36.006Z,29.87
2019-02-03T07:01:04.095Z,30.27
2019-02-03T07:03:32.070Z,32.78
2019-02-03T07:05:59.848Z,32.42
2019-02-03T07:08:27.909Z,29.10
2019-02-03T07:10:55.713Z,28.10
2019-02-03T07:13:23.445Z,30.95
2019-02-03T07:15:51.283Z,29.07
2019-02-03T07:18:19.093Z,33.98
2019-02-03T07:20:46.845Z,32.65
2019-02-03T07:23:14.534Z,33.60
2019-02-03T07:25:42.318Z,32.30
2019-02-03T07:28:10.101Z,35.80
2019-02-03T07:30:38.414Z,34.95
2019-02-03T07:33:06.126Z,34.70
2019-02-03T07:35:33.951Z,36.30
2019-02-03T07:38:01.778Z,34.98
2019-02-03T07:40:29.867Z,34.40
2019-02-03T07:42:58.166Z,35.58
2019-02-03T07:45:26.213Z,35.90
2019-02-03T07:47:53.920Z,35.75
2019-02-03T07:50:21.773Z,34.83
2019-02-03T07:52:49.454Z,36.77
2019-02-03T07:55:17.207Z,34.35
2019-02-03T07:57:44.977Z,36.60
2019-02-03T08:00:12.892Z,34.75
2019-02-03T08:02:42.288Z,37.48
2019-02-03T08:05:10.407Z,33.40
2019-02-03T08:07:38.404Z,35.00
2019-02-03T08:10:06.283Z,36.73
2019-02-03T08:12:35.657Z,33.90
2019-02-03T08:15:06.104Z,36.30
2019-02-03T08:17:37.369Z,36.95
2019-02-03T08:20:06.803Z,36.08
2019-02-03T08:22:36.299Z,32.58
2019-02-03T08:25:05.488Z,33.80
2019-02-03T08:27:34.768Z,36.20
2019-02-03T08:30:06.018Z,35.52
2019-02-03T08:32:35.372Z,34.05
2019-02-03T08:35:05.067Z,33.35
2019-02-03T08:37:32.962Z,34.55
2019-02-03T08:40:00.855Z,35.08
2019-02-03T08:42:30.257Z,35.85
2019-02-03T08:44:58.179Z,32.80
2019-02-03T08:47:26.940Z,36.35
2019-02-03T08:49:55.634Z,36.60
2019-02-03T08:52:23.328Z,33.65
2019-02-03T08:54:58.297Z,33.35
2019-02-03T08:57:20.640Z,34.25
2019-02-03T08:59:48.806Z,33.85
2019-02-03T09:02:16.606Z,30.25
2019-02-03T09:04:44.588Z,30.88
2019-02-03T09:07:12.322Z,32.75
2019-02-03T09:09:40.128Z,29.25
2019-02-03T09:12:07.805Z,31.25
2019-02-03T09:14:36.083Z,29.50
2019-02-03T09:17:03.874Z,30.55
2019-02-03T09:19:31.866Z,28.92
2019-02-03T09:21:59.757Z,26.68
2019-02-03T09:24:27.531Z,29.15
2019-02-03T09:26:55.447Z,29.50
2019-02-03T09:29:23.128Z,31.48
2019-02-03T09:31:51.027Z,31.52
2019-02-03T09:34:18.823Z,30.80
2019-02-03T09:36:46.562Z,28.05
2019-02-03T09:39:14.288Z,28.62
2019-02-03T09:41:42.042Z,31.02
2019-02-03T09:44:09.971Z,31.37
2019-02-03T09:46:38.160Z,29.45
2019-02-03T09:49:06.069Z,27.90
2019-02-03T09:51:35.108Z,27.55
2019-02-03T09:54:03.320Z,28.00
2019-02-03T09:56:31.276Z,26.95
2019-02-03T09:58:59.068Z,25.50
2019-02-03T10:01:27.013Z,22.22
2019-02-03T10:03:54.815Z,25.30
2019-02-03T10:06:22.578Z,25.60
2019-02-03T10:08:50.391Z,24.45
2019-02-03T10:11:18.161Z,23.00
2019-02-03T10:13:45.963Z,23.25
2019-02-03T10:16:13.936Z,23.92
2019-02-03T10:18:41.941Z,22.13
2019-02-03T10:21:09.753Z,21.80
2019-02-03T10:23:37.757Z,23.30
2019-02-03T10:26:05.666Z,21.75
2019-02-03T10:28:33.572Z,19.30
2019-02-03T10:31:01.305Z,20.80
2019-02-03T10:33:29.609Z,22.65
2019-02-03T10:35:57.552Z,22.52
2019-02-03T10:38:25.434Z,20.75
2019-02-03T10:40:53.421Z,19.15
2019-02-03T10:43:21.418Z,18.62
2019-02-03T10:45:49.245Z,19.32
2019-02-03T10:48:17.166Z,20.02
2019-02-03T10:50:45.000Z,15.90
2019-02-03T10:53:12.795Z,18.00
2019-02-03T10:55:40.599Z,18.75
2019-02-03T10:58:08.654Z,16.95
2019-02-03T11:00:37.519Z,18.05
2019-02-03T11:03:06.910Z,17.25
2019-02-03T11:05:40.686Z,18.00
2019-02-03T11:08:11.730Z,16.80
2019-02-03T11:10:39.829Z,14.00
2019-02-03T11:13:07.736Z,16.10
2019-02-03T11:15:35.708Z,16.65
2019-02-03T11:18:04.251Z,17.67
2019-02-03T11:20:32.882Z,16.30
2019-02-03T11:23:02.883Z,17.17
2019-02-03T11:25:31.767Z,18.45
2019-02-03T11:27:59.908Z,20.02
2019-02-03T11:30:32.180Z,19.52
2019-02-03T11:33:06.551Z,16.50
2019-02-03T11:35:33.891Z,17.67
2019-02-03T11:38:01.909Z,16.90
2019-02-03T11:40:31.718Z,17.30
2019-02-03T11:43:01.096Z,18.32
2019-02-03T11:45:32.352Z,17.60
2019-02-03T11:48:02.106Z,16.23
2019-02-03T11:50:34.245Z,17.67
2019-02-03T11:53:05.989Z,17.82
2019-02-03T11:55:35.382Z,16.05
2019-02-03T11:58:07.137Z,17.17
2019-02-03T12:00:36.166Z,16.20
2019-02-03T12:03:05.213Z,17.12
2019-02-03T12:05:33.390Z,16.60
2019-02-03T12:08:01.254Z,17.23
2019-02-03T12:10:30.277Z,14.70
2019-02-03T12:12:58.877Z,15.53
2019-02-03T12:15:26.854Z,15.68
2019-02-03T12:17:54.949Z,17.00
2019-02-03T12:20:22.899Z,16.60
2019-02-03T12:22:50.889Z,16.07
2019-02-03T12:25:23.245Z,16.07
2019-02-03T12:27:53.129Z,16.17
2019-02-03T12:30:26.751Z,15.90
2019-02-03T12:32:56.191Z,15.40
2019-02-03T12:35:24.181Z,16.42
2019-02-03T12:37:52.348Z,16.67
2019-02-03T12:40:28.560Z,16.40
2019-02-03T12:42:58.480Z,16.80
2019-02-03T12:45:26.488Z,15.50
2019-02-03T12:47:54.753Z,17.40
2019-02-03T12:50:22.631Z,14.73
2019-02-03T12:52:50.695Z,16.30
2019-02-03T12:55:20.682Z,13.10
2019-02-03T12:57:50.148Z,15.55
2019-02-03T13:00:20.710Z,14.85
2019-02-03T13:02:50.011Z,16.90
2019-02-03T13:05:19.304Z,14.63
2019-02-03T13:07:48.749Z,14.55
2019-02-03T13:10:19.055Z,14.35
2019-02-03T13:12:48.392Z,16.62
2019-02-03T13:15:19.227Z,16.32
2019-02-03T13:17:48.573Z,16.70
2019-02-03T13:20:21.837Z,17.10
2019-02-03T13:22:52.809Z,17.87
2019-02-03T13:25:21.797Z,18.85
2019-02-03T13:27:49.881Z,17.85
2019-02-03T13:30:31.781Z,19.73
2019-02-03T13:33:01.204Z,16.90
2019-02-03T13:35:29.124Z,18.98
2019-02-03T13:37:56.993Z,17.87
2019-02-03T13:40:24.977Z,18.67
2019-02-03T13:42:52.841Z,20.88
2019-02-03T13:45:21.219Z,18.77
2019-02-03T13:47:50.878Z,15.05
2019-02-03T13:50:22.195Z,18.77
2019-02-03T13:52:52.024Z,19.62
2019-02-03T13:55:20.833Z,19.17
2019-02-03T13:57:49.271Z,18.75
2019-02-03T14:00:25.731Z,20.02
2019-02-03T14:02:55.185Z,18.52
2019-02-03T14:05:23.165Z,19.98
2019-02-03T14:07:51.159Z,21.17
2019-02-03T14:10:29.877Z,19.55
2019-02-03T14:12:59.811Z,18.85
2019-02-03T14:15:28.031Z,18.48
2019-02-03T14:17:56.419Z,20.15
2019-02-03T14:20:26.664Z,22.02
2019-02-03T14:22:56.721Z,18.45
2019-02-03T14:25:25.470Z,19.95
2019-02-03T14:27:53.344Z,18.60
2019-02-03T14:30:26.781Z,21.87
2019-02-03T14:32:58.413Z,21.50
2019-02-03T14:35:25.962Z,21.68
2019-02-03T14:37:53.886Z,21.10
2019-02-03T14:40:22.880Z,20.25
2019-02-03T14:43:01.147Z,20.12
2019-02-03T14:45:21.382Z,20.72
2019-02-03T14:47:50.762Z,20.30
2019-02-03T14:50:19.817Z,22.15
2019-02-03T14:52:49.920Z,21.42
2019-02-03T14:55:21.169Z,19.35
2019-02-03T14:57:50.547Z,21.05
2019-02-03T15:00:24.604Z,21.02
2019-02-03T15:02:53.981Z,21.77
2019-02-03T15:05:22.584Z,20.60
2019-02-03T15:07:50.662Z,21.80
2019-02-03T15:10:18.453Z,20.40
2019-02-03T15:12:46.178Z,19.95
2019-02-03T15:15:18.176Z,19.30
2019-02-03T15:17:47.670Z,19.60
2019-02-03T15:20:17.871Z,23.83
2019-02-03T15:22:47.334Z,21.35
2019-02-03T15:25:15.360Z,21.70
2019-02-03T15:27:43.301Z,21.93
2019-02-03T15:30:19.722Z,21.45
2019-02-03T15:32:48.470Z,22.70
2019-02-03T15:35:16.258Z,18.40
2019-02-03T15:37:44.186Z,22.27
2019-02-03T15:40:13.221Z,21.93
2019-02-03T15:42:42.622Z,22.62
2019-02-03T15:45:12.530Z,23.12
2019-02-03T15:47:41.937Z,20.37
2019-02-03T15:50:18.031Z,22.58
2019-02-03T15:52:47.514Z,28.02
2019-02-03T15:55:20.852Z,27.85
2019-02-03T15:57:50.694Z,20.15
2019-02-03T16:00:21.184Z,20.68
2019-02-03T16:02:50.537Z,22.35
2019-02-03T16:05:18.438Z,21.75
2019-02-03T16:07:46.358Z,22.70
2019-02-03T16:10:16.570Z,23.65
2019-02-03T16:12:46.486Z,23.22
2019-02-03T16:15:14.606Z,20.60
2019-02-03T16:17:42.706Z,22.25
2019-02-03T16:20:13.380Z,22.82
2019-02-03T16:22:42.811Z,20.30
2019-02-03T16:25:10.778Z,19.27
2019-02-03T16:27:38.966Z,20.90
2019-02-03T16:30:09.456Z,21.25
2019-02-03T16:32:38.953Z,21.10
2019-02-03T16:35:07.719Z,20.45
2019-02-03T16:37:37.587Z,20.72
2019-02-03T16:40:07.587Z,22.00
2019-02-03T16:42:37.007Z,21.40
2019-02-03T16:45:05.921Z,19.85
2019-02-03T16:47:35.500Z,18.98
2019-02-03T16:50:04.806Z,20.72
2019-02-03T16:52:34.242Z,20.48
2019-02-03T16:55:03.203Z,20.90
2019-02-03T16:57:32.615Z,20.45
2019-02-03T17:00:00.471Z,19.52
2019-02-03T17:02:28.429Z,20.12
2019-02-03T17:04:56.248Z,19.82
2019-02-03T17:07:24.206Z,20.40
2019-02-03T17:09:52.231Z,18.73
2019-02-03T17:12:20.245Z,17.77
2019-02-03T17:14:48.154Z,18.23
2019-02-03T17:17:16.010Z,17.60
2019-02-03T17:19:43.978Z,18.30
2019-02-03T17:22:11.919Z,17.52
2019-02-03T17:24:40.063Z,18.48
2019-02-03T17:27:07.986Z,17.98
2019-02-03T17:29:35.805Z,16.62
2019-02-03T17:32:03.741Z,16.10
2019-02-03T17:34:31.640Z,17.12
2019-02-03T17:36:59.496Z,16.20
2019-02-03T17:39:27.492Z,18.77
2019-02-03T17:41:55.645Z,16.80
2019-02-03T17:44:23.546Z,16.67
2019-02-03T17:46:51.383Z,16.12
2019-02-03T17:49:19.374Z,17.57
2019-02-03T17:51:47.206Z,17.02
2019-02-03T17:54:15.125Z,16.30
2019-02-03T17:56:47.120Z,18.87
2019-02-03T17:59:21.506Z,16.73
2019-02-03T18:01:49.346Z,17.05
2019-02-03T18:04:17.405Z,18.80
2019-02-03T18:06:45.149Z,15.23
2019-02-03T18:09:13.165Z,17.52
2019-02-03T18:11:41.473Z,17.87
2019-02-03T18:14:09.431Z,17.80
2019-02-03T18:16:37.554Z,17.30
2019-02-03T18:19:05.318Z,15.68
2019-02-03T18:21:33.371Z,15.72
2019-02-03T18:24:01.239Z,16.32
2019-02-03T18:26:29.069Z,15.20
2019-02-03T18:28:57.073Z,15.72
2019-02-03T18:31:25.103Z,15.55
2019-02-03T18:33:53.043Z,16.52
2019-02-03T18:36:21.030Z,15.35
2019-02-03T18:38:49.005Z,16.40
2019-02-03T18:41:16.830Z,16.40
2019-02-03T18:43:44.925Z,16.40
2019-02-03T18:46:13.009Z,15.95
2019-02-03T18:48:40.973Z,16.65
2019-02-03T18:51:09.023Z,15.63
2019-02-03T18:53:36.860Z,15.20
2019-02-03T18:56:04.585Z,16.32
2019-02-03T18:58:32.902Z,13.60
2019-02-03T19:01:00.801Z,15.15
2019-02-03T19:03:28.682Z,16.95
2019-02-03T19:05:56.493Z,14.80
2019-02-03T19:08:24.331Z,13.68
2019-02-03T19:10:52.205Z,14.40
2019-02-03T19:13:20.243Z,11.93
2019-02-03T19:15:48.202Z,13.53
2019-02-03T19:18:16.068Z,13.30
2019-02-03T19:20:43.877Z,12.33
2019-02-03T19:23:11.972Z,11.50
2019-02-03T19:25:40.318Z,11.15
2019-02-03T19:28:08.924Z,13.30
2019-02-03T19:30:36.809Z,11.00
2019-02-03T19:33:05.593Z,9.98
2019-02-03T19:35:33.573Z,9.93
2019-02-03T19:38:02.120Z,9.68
2019-02-03T19:40:31.270Z,10.23
2019-02-03T19:42:59.364Z,8.85
2019-02-03T19:45:28.294Z,8.90
2019-02-03T19:47:57.169Z,9.33
2019-02-03T19:50:27.672Z,9.53
2019-02-03T19:52:57.271Z,8.65
2019-02-03T19:55:25.434Z,9.20
2019-02-03T19:57:53.275Z,9.65
2019-02-03T20:00:30.496Z,8.70
2019-02-03T20:02:59.931Z,9.18
2019-02-03T20:05:29.157Z,9.80
2019-02-03T20:07:57.016Z,10.82
2019-02-03T20:12:53.874Z,10.18
2019-02-03T20:15:21.983Z,9.15
2019-02-03T20:17:50.277Z,10.53
2019-02-03T20:20:20.474Z,10.00
2019-02-03T20:22:49.903Z,9.60
2019-02-03T20:25:18.776Z,10.68
2019-02-03T20:27:47.143Z,9.53
2019-02-03T20:30:19.953Z,10.05
2019-02-03T20:32:49.269Z,10.20
2019-02-03T20:35:18.377Z,10.85
2019-02-03T20:37:47.938Z,11.05
2019-02-03T20:40:23.853Z,9.83
2019-02-03T20:42:53.184Z,10.82
2019-02-03T20:45:21.623Z,9.43
2019-02-03T20:47:49.726Z,9.58
2019-02-03T20:50:19.098Z,10.15
2019-02-03T20:52:48.401Z,9.55
2019-02-03T20:55:17.128Z,10.43
2019-02-03T20:57:46.145Z,10.60
2019-02-03T21:00:17.298Z,8.95
2019-02-03T21:02:46.689Z,10.63
2019-02-03T21:05:14.850Z,9.10
2019-02-03T21:07:42.845Z,8.90
2019-02-03T21:10:12.887Z,8.65
2019-02-03T21:12:42.276Z,7.42
2019-02-03T21:15:12.534Z,8.18
2019-02-03T21:17:42.062Z,8.50
2019-02-03T21:20:15.921Z,8.90
2019-02-03T21:22:46.345Z,9.18
2019-02-03T21:25:14.903Z,8.28
2019-02-03T21:27:43.598Z,8.10
2019-02-03T21:30:14.987Z,8.68
2019-02-03T21:32:44.377Z,8.53
2019-02-03T21:35:12.184Z,8.08
2019-02-03T21:37:40.054Z,8.20
2019-02-03T21:40:11.233Z,8.40
2019-02-03T21:42:40.583Z,8.85
2019-02-03T21:45:08.958Z,8.35
2019-02-03T21:47:37.578Z,8.13
2019-02-03T21:50:08.825Z,8.75
2019-02-03T21:52:38.173Z,8.38
2019-02-03T21:55:07.557Z,7.42
2019-02-03T21:57:36.890Z,7.92
2019-02-03T22:00:08.173Z,8.30
2019-02-03T22:02:37.474Z,7.87
2019-02-03T22:05:05.569Z,7.95
2019-02-03T22:07:36.295Z,8.65
2019-02-03T22:10:04.700Z,7.58
2019-02-03T22:12:34.102Z,6.85
2019-02-03T22:15:01.819Z,7.85
2019-02-03T22:17:31.130Z,7.78
2019-02-03T22:19:58.946Z,7.28
2019-02-03T22:22:26.655Z,8.55
2019-02-03T22:24:54.411Z,7.25
2019-02-03T22:27:22.177Z,7.50
2019-02-03T22:29:49.963Z,8.33
2019-02-03T22:32:17.893Z,8.38
2019-02-03T22:34:45.695Z,7.12
2019-02-03T22:37:13.459Z,7.67
2019-02-03T22:39:41.408Z,8.58
2019-02-03T22:42:09.265Z,7.28
2019-02-03T22:44:37.045Z,6.42
2019-02-03T22:47:04.960Z,7.42
2019-02-03T22:49:33.197Z,6.45
2019-02-03T22:52:00.942Z,7.03
2019-02-03T22:54:28.675Z,6.28
2019-02-03T22:56:56.530Z,6.72
2019-02-03T22:59:24.289Z,7.25
2019-02-03T23:01:53.060Z,7.12
2019-02-03T23:04:26.958Z,6.90
2019-02-03T23:06:54.733Z,6.75
2019-02-03T23:09:32.103Z,5.85
2019-02-03T23:12:01.510Z,6.75
2019-02-03T23:14:30.801Z,6.47
2019-02-03T23:16:59.074Z,6.45
2019-02-03T23:19:26.963Z,6.25
2019-02-03T23:21:54.717Z,7.12
2019-02-03T23:24:22.413Z,7.03
2019-02-03T23:26:50.240Z,6.78
2019-02-03T23:29:18.030Z,7.30
2019-02-03T23:31:45.838Z,6.30
2019-02-03T23:34:13.721Z,6.50
2019-02-03T23:36:41.503Z,6.92
2019-02-03T23:39:11.733Z,7.10
2019-02-03T23:41:39.445Z,7.12
2019-02-03T23:44:07.443Z,6.10
2019-02-03T23:46:35.196Z,7.15
2019-02-03T23:49:03.464Z,7.00
2019-02-03T23:51:31.256Z,7.42
2019-02-03T23:53:59.181Z,7.90
2019-02-03T23:56:26.986Z,6.90
2019-02-03T23:58:54.802Z,7.87
